createdAt,value
2019-05-25T00:00:10.868Z,8.55
2019-05-25T00:02:40.389Z,8.50
2019-05-25T00:05:10.505Z,8.03
2019-05-25T00:07:39.912Z,8.15
2019-05-25T00:10:09.741Z,8.45
2019-05-25T00:12:39.099Z,9.00
2019-05-25T00:15:08.533Z,8.38
2019-05-25T00:17:38.069Z,7.90
2019-05-25T00:20:07.856Z,8.20
2019-05-25T00:22:37.198Z,8.28
2019-05-25T00:25:07.623Z,10.03
2019-05-25T00:27:37.185Z,8.30
2019-05-25T00:30:08.611Z,9.03
2019-05-25T00:32:38.236Z,8.75
2019-05-25T00:35:07.810Z,8.03
2019-05-25T00:37:37.221Z,8.23
2019-05-25T00:40:10.120Z,8.08
2019-05-25T00:42:39.426Z,8.63
2019-05-25T00:45:08.906Z,8.30
2019-05-25T00:47:38.211Z,9.35
2019-05-25T00:50:08.592Z,7.87
2019-05-25T00:52:38.203Z,7.60
2019-05-25T00:55:08.150Z,8.73
2019-05-25T00:57:37.789Z,8.05
2019-05-25T01:00:08.109Z,9.25
2019-05-25T01:02:40.964Z,9.10
2019-05-25T01:05:10.975Z,8.15
2019-05-25T01:07:40.344Z,9.33
2019-05-25T01:10:10.309Z,9.20
2019-05-25T01:12:39.634Z,8.58
2019-05-25T01:15:10.343Z,9.75
2019-05-25T01:17:40.186Z,8.78
2019-05-25T01:20:11.099Z,8.60
2019-05-25T01:22:40.577Z,9.40
2019-05-25T01:25:10.339Z,8.28
2019-05-25T01:27:39.670Z,9.30
2019-05-25T01:30:10.918Z,9.53
2019-05-25T01:32:40.297Z,9.75
2019-05-25T01:35:10.070Z,9.20
2019-05-25T01:37:39.607Z,9.43
2019-05-25T01:40:11.445Z,9.88
2019-05-25T01:42:40.776Z,10.03
2019-05-25T01:45:10.650Z,8.73
2019-05-25T01:47:40.021Z,8.08
2019-05-25T01:50:09.965Z,8.58
2019-05-25T01:52:39.308Z,9.35
2019-05-25T01:55:09.272Z,9.95
2019-05-25T01:57:38.578Z,9.40
2019-05-25T02:00:09.025Z,9.80
2019-05-25T02:02:38.449Z,9.75
2019-05-25T02:05:08.736Z,9.43
2019-05-25T02:07:38.184Z,8.38
2019-05-25T02:10:08.556Z,9.30
2019-05-25T02:12:37.868Z,9.13
2019-05-25T02:15:10.835Z,9.15
2019-05-25T02:17:40.214Z,9.98
2019-05-25T02:20:10.100Z,9.73
2019-05-25T02:22:39.431Z,9.78
2019-05-25T02:25:17.791Z,9.83
2019-05-25T02:27:40.533Z,9.78
2019-05-25T02:30:11.461Z,8.65
2019-05-25T02:32:40.803Z,9.60
2019-05-25T02:35:13.300Z,9.75
2019-05-25T02:37:42.692Z,8.40
2019-05-25T02:40:12.224Z,8.55
2019-05-25T02:42:41.562Z,7.92
2019-05-25T02:45:11.247Z,8.73
2019-05-25T02:47:40.677Z,9.70
2019-05-25T02:50:10.226Z,9.78
2019-05-25T02:52:39.634Z,9.30
2019-05-25T02:55:11.226Z,10.23
2019-05-25T02:57:40.574Z,9.38
2019-05-25T03:00:11.606Z,9.80
2019-05-25T03:02:41.197Z,9.38
2019-05-25T03:05:14.121Z,12.55
2019-05-25T03:07:45.392Z,10.08
2019-05-25T03:10:15.551Z,10.58
2019-05-25T03:12:44.960Z,10.30
2019-05-25T03:15:14.656Z,9.70
2019-05-25T03:17:44.059Z,8.65
2019-05-25T03:20:13.614Z,10.13
2019-05-25T03:25:12.889Z,9.70
2019-05-25T03:27:42.280Z,9.80
2019-05-25T03:30:12.004Z,9.33
2019-05-25T03:32:41.552Z,8.90
2019-05-25T03:35:11.209Z,9.75
2019-05-25T03:37:40.542Z,9.90
2019-05-25T03:40:10.025Z,10.18
2019-05-25T03:42:40.449Z,9.15
2019-05-25T03:45:09.764Z,10.18
2019-05-25T03:47:39.114Z,10.48
2019-05-25T03:50:09.532Z,10.00
2019-05-25T03:52:38.872Z,9.55
2019-05-25T03:55:08.244Z,9.70
2019-05-25T03:57:37.573Z,9.95
2019-05-25T04:00:08.167Z,9.65
2019-05-25T04:02:37.732Z,9.30
2019-05-25T04:05:07.683Z,9.20
2019-05-25T04:07:37.029Z,10.13
2019-05-25T04:10:07.125Z,10.03
2019-05-25T04:12:36.509Z,9.45
2019-05-25T04:15:07.104Z,10.10
2019-05-25T04:17:37.382Z,9.80
2019-05-25T04:20:07.608Z,10.18
2019-05-25T04:22:36.947Z,8.83
2019-05-25T04:25:08.033Z,9.10
2019-05-25T04:27:37.347Z,9.68
2019-05-25T04:30:08.121Z,10.08
2019-05-25T04:32:37.429Z,9.80
2019-05-25T04:35:07.614Z,8.95
2019-05-25T04:37:37.005Z,9.33
2019-05-25T04:40:07.385Z,8.90
2019-05-25T04:42:36.771Z,8.58
2019-05-25T04:45:06.811Z,8.43
2019-05-25T04:47:36.142Z,9.75
2019-05-25T04:50:06.704Z,9.58
2019-05-25T04:52:36.018Z,8.25
2019-05-25T04:55:06.580Z,8.95
2019-05-25T04:57:35.948Z,9.00
2019-05-25T05:00:09.900Z,8.58
2019-05-25T05:02:39.297Z,8.88
2019-05-25T05:05:08.983Z,9.33
2019-05-25T05:07:38.326Z,9.07
2019-05-25T05:10:08.888Z,8.95
2019-05-25T05:15:07.251Z,8.83
2019-05-25T05:17:36.569Z,9.38
2019-05-25T05:20:09.581Z,9.25
2019-05-25T05:22:38.951Z,9.30
2019-05-25T05:25:09.842Z,9.18
2019-05-25T05:27:39.822Z,9.40
2019-05-25T05:30:09.618Z,9.33
2019-05-25T05:32:39.007Z,9.88
2019-05-25T05:35:09.843Z,8.50
2019-05-25T05:37:40.957Z,8.68
2019-05-25T05:40:10.831Z,9.88
2019-05-25T05:42:43.188Z,9.80
2019-05-25T05:45:13.751Z,9.58
2019-05-25T05:50:13.708Z,13.65
2019-05-25T05:52:43.143Z,10.80
2019-05-25T05:55:17.445Z,11.30
2019-05-25T05:57:46.573Z,10.15
2019-05-25T06:00:17.257Z,10.08
2019-05-25T06:02:46.608Z,11.00
2019-05-25T06:05:15.958Z,9.90
2019-05-25T06:07:45.270Z,9.80
2019-05-25T06:10:15.079Z,9.78
2019-05-25T06:12:44.448Z,10.63
2019-05-25T06:15:14.039Z,9.75
2019-05-25T06:17:44.067Z,10.03
2019-05-25T06:20:14.024Z,10.13
2019-05-25T06:22:43.434Z,10.55
2019-05-25T06:25:13.939Z,9.58
2019-05-25T06:27:43.248Z,10.10
2019-05-25T06:30:13.127Z,9.80
2019-05-25T06:32:42.483Z,10.70
2019-05-25T06:35:12.365Z,9.40
2019-05-25T06:37:41.794Z,9.88
2019-05-25T06:40:11.865Z,12.63
2019-05-25T06:42:41.181Z,10.05
2019-05-25T06:45:11.072Z,11.40
2019-05-25T06:47:40.398Z,8.93
2019-05-25T06:50:10.096Z,8.65
2019-05-25T06:52:39.415Z,8.83
2019-05-25T06:55:09.181Z,8.55
2019-05-25T06:57:43.082Z,9.95
2019-05-25T07:00:10.471Z,8.83
2019-05-25T07:02:39.834Z,9.05
2019-05-25T07:05:10.666Z,9.28
2019-05-25T07:07:40.023Z,8.70
2019-05-25T07:10:10.313Z,8.73
2019-05-25T07:15:08.740Z,8.08
2019-05-25T07:17:38.158Z,8.28
2019-05-25T07:20:08.324Z,12.78
2019-05-25T07:22:37.722Z,8.33
2019-05-25T07:25:07.677Z,8.43
2019-05-25T07:27:37.169Z,8.73
2019-05-25T07:30:08.496Z,9.17
2019-05-25T07:32:37.875Z,8.45
2019-05-25T07:35:08.057Z,9.55
2019-05-25T07:40:07.918Z,7.83
2019-05-25T07:42:37.244Z,7.92
2019-05-25T07:45:08.475Z,8.28
2019-05-25T07:47:37.858Z,7.45
2019-05-25T07:50:08.046Z,7.55
2019-05-25T07:52:37.447Z,7.00
2019-05-25T07:55:08.244Z,7.75
2019-05-25T07:57:37.712Z,6.75
2019-05-25T08:00:07.863Z,6.53
2019-05-25T08:02:37.342Z,6.40
2019-05-25T08:07:36.444Z,7.83
2019-05-25T08:10:06.561Z,8.93
2019-05-25T08:12:36.006Z,7.08
2019-05-25T08:15:06.341Z,7.22
2019-05-25T08:20:05.927Z,6.65
2019-05-25T08:22:35.320Z,9.30
2019-05-25T08:25:07.695Z,8.73
2019-05-25T08:27:37.150Z,6.85
2019-05-25T08:30:07.814Z,6.30
2019-05-25T08:32:37.381Z,6.12
2019-05-25T08:35:07.575Z,6.47
2019-05-25T08:37:36.893Z,6.58
2019-05-25T08:40:07.069Z,10.25
2019-05-25T08:42:36.393Z,6.37
2019-05-25T08:45:07.505Z,6.72
2019-05-25T08:47:36.948Z,5.83
2019-05-25T08:50:07.976Z,7.37
2019-05-25T08:52:37.768Z,6.83
2019-05-25T08:55:08.121Z,7.10
2019-05-25T09:00:07.157Z,6.10
2019-05-25T09:02:36.705Z,5.80
2019-05-25T09:05:08.000Z,5.70
2019-05-25T09:07:37.301Z,5.50
2019-05-25T09:10:07.968Z,6.35
2019-05-25T09:12:37.360Z,4.50
2019-05-25T09:15:08.239Z,8.23
2019-05-25T09:17:37.553Z,5.20
2019-05-25T09:20:08.841Z,5.90
2019-05-25T09:22:38.228Z,5.30
2019-05-25T09:25:08.264Z,5.60
2019-05-25T09:27:37.590Z,5.10
2019-05-25T09:30:08.028Z,5.27
2019-05-25T09:32:37.526Z,5.12
2019-05-25T09:35:08.426Z,5.67
2019-05-25T09:37:37.734Z,4.37
2019-05-25T09:40:08.075Z,7.40
2019-05-25T09:42:37.565Z,4.53
2019-05-25T09:45:08.877Z,4.08
2019-05-25T09:47:38.206Z,4.50
2019-05-25T09:50:08.156Z,4.40
2019-05-25T09:55:09.591Z,4.17
2019-05-25T09:57:41.540Z,4.87
2019-05-25T10:00:12.036Z,3.90
2019-05-25T10:02:41.980Z,3.98
2019-05-25T10:05:12.216Z,4.60
2019-05-25T10:07:41.566Z,3.72
2019-05-25T10:10:11.605Z,3.52
2019-05-25T10:12:41.140Z,3.87
2019-05-25T10:15:10.728Z,4.97
2019-05-25T10:17:40.084Z,2.95
2019-05-25T10:20:10.915Z,2.60
2019-05-25T10:22:40.267Z,2.15
2019-05-25T10:25:11.705Z,2.67
2019-05-25T10:27:46.880Z,2.42
2019-05-25T10:30:17.834Z,2.47
2019-05-25T10:32:47.196Z,3.00
2019-05-25T10:35:16.782Z,4.90
2019-05-25T10:37:46.082Z,3.75
2019-05-25T10:40:16.570Z,3.20
2019-05-25T10:42:46.028Z,4.33
2019-05-25T10:45:15.871Z,2.87
2019-05-25T10:47:45.159Z,2.62
2019-05-25T10:50:14.827Z,2.47
2019-05-25T10:52:44.229Z,2.30
2019-05-25T10:55:15.303Z,2.13
2019-05-25T10:57:44.729Z,2.37
2019-05-25T11:00:17.161Z,2.10
2019-05-25T11:02:46.627Z,1.50
2019-05-25T11:05:16.892Z,1.92
2019-05-25T11:07:47.158Z,2.20
2019-05-25T11:10:16.936Z,1.52
2019-05-25T11:15:17.018Z,1.30
2019-05-25T11:17:46.820Z,0.85
2019-05-25T11:20:16.370Z,1.05
2019-05-25T11:22:45.708Z,1.00
2019-05-25T11:25:16.651Z,0.68
2019-05-25T11:27:46.058Z,1.85
2019-05-25T11:30:16.127Z,0.60
2019-05-25T11:32:45.574Z,0.60
2019-05-25T11:35:15.602Z,0.80
2019-05-25T11:37:45.386Z,0.65
2019-05-25T11:40:16.629Z,0.90
2019-05-25T11:42:46.010Z,0.78
2019-05-25T11:45:17.081Z,1.50
2019-05-25T11:47:46.394Z,1.20
2019-05-25T11:50:17.264Z,0.70
2019-05-25T11:52:46.708Z,0.88
2019-05-25T11:55:16.521Z,0.50
2019-05-25T11:57:45.904Z,1.47
2019-05-25T12:00:25.011Z,1.07
2019-05-25T12:02:49.489Z,1.30
2019-05-25T12:05:19.640Z,1.17
2019-05-25T12:10:17.931Z,0.82
2019-05-25T12:12:47.381Z,1.25
2019-05-25T12:15:17.037Z,0.50
2019-05-25T12:17:46.368Z,0.62
2019-05-25T12:20:17.524Z,0.57
2019-05-25T12:22:46.844Z,0.80
2019-05-25T12:25:16.588Z,0.90
2019-05-25T12:27:49.074Z,1.00
2019-05-25T12:30:18.013Z,0.70
2019-05-25T12:32:48.299Z,0.80
2019-05-25T12:35:18.963Z,0.73
2019-05-25T12:37:48.408Z,0.70
2019-05-25T12:40:18.852Z,0.75
2019-05-25T12:42:48.182Z,0.60
2019-05-25T12:45:17.768Z,0.55
2019-05-25T12:47:47.079Z,0.70
2019-05-25T12:50:16.726Z,0.85
2019-05-25T12:52:46.063Z,0.70
2019-05-25T12:55:15.519Z,0.65
2019-05-25T12:57:44.932Z,0.60
2019-05-25T13:00:16.333Z,0.80
2019-05-25T13:02:46.523Z,0.80
2019-05-25T13:05:15.901Z,0.70
2019-05-25T13:07:45.311Z,0.70
2019-05-25T13:10:15.065Z,1.07
2019-05-25T13:12:44.502Z,0.60
2019-05-25T13:15:14.253Z,0.60
2019-05-25T13:17:43.577Z,0.85
2019-05-25T13:20:14.540Z,6.43
2019-05-25T13:22:43.843Z,0.72
2019-05-25T13:25:13.440Z,1.17
2019-05-25T13:27:42.772Z,0.50
2019-05-25T13:30:12.704Z,0.50
2019-05-25T13:32:42.039Z,0.60
2019-05-25T13:35:11.860Z,1.30
2019-05-25T13:37:41.254Z,0.88
2019-05-25T13:40:10.920Z,1.93
2019-05-25T13:42:40.323Z,1.10
2019-05-25T13:45:10.064Z,0.70
2019-05-25T13:47:39.387Z,1.07
2019-05-25T13:50:10.542Z,0.70
2019-05-25T13:52:39.929Z,0.60
2019-05-25T13:55:11.260Z,0.80
2019-05-25T13:57:40.591Z,0.70
2019-05-25T14:00:11.580Z,0.68
2019-05-25T14:02:41.153Z,1.75
2019-05-25T14:05:10.712Z,1.47
2019-05-25T14:07:40.173Z,2.37
2019-05-25T14:10:09.843Z,1.30
2019-05-25T14:12:39.233Z,1.50
2019-05-25T14:15:09.202Z,1.77
2019-05-25T14:17:38.667Z,1.70
2019-05-25T14:20:09.323Z,1.40
2019-05-25T14:22:38.700Z,1.42
2019-05-25T14:25:09.362Z,1.52
2019-05-25T14:27:38.769Z,1.52
2019-05-25T14:30:09.142Z,1.77
2019-05-25T14:32:38.457Z,2.33
2019-05-25T14:35:08.138Z,1.40
2019-05-25T14:37:37.510Z,1.37
2019-05-25T14:40:11.275Z,1.00
2019-05-25T14:42:39.979Z,1.02
2019-05-25T14:45:09.747Z,0.87
2019-05-25T14:47:39.042Z,1.87
2019-05-25T14:50:09.038Z,1.90
2019-05-25T14:52:38.357Z,2.80
2019-05-25T14:55:08.591Z,2.77
2019-05-25T15:00:07.527Z,3.33
2019-05-25T15:05:05.986Z,3.70
2019-05-25T15:07:35.385Z,3.47
2019-05-25T15:10:07.889Z,3.62
2019-05-25T15:12:37.227Z,3.33
2019-05-25T15:15:08.383Z,3.25
2019-05-25T15:17:37.787Z,3.47
2019-05-25T15:20:08.360Z,3.55
2019-05-25T15:25:09.623Z,3.80
2019-05-25T15:27:38.947Z,3.47
2019-05-25T15:30:10.482Z,4.25
2019-05-25T15:32:39.813Z,4.17
2019-05-25T15:35:09.534Z,4.20
2019-05-25T15:37:38.864Z,4.12
2019-05-25T15:40:10.509Z,4.80
2019-05-25T15:42:40.875Z,5.28
2019-05-25T15:45:10.743Z,5.40
2019-05-25T15:47:40.074Z,5.40
2019-05-25T15:50:13.833Z,5.40
2019-05-25T15:52:43.199Z,5.42
2019-05-25T15:55:14.145Z,5.65
2019-05-25T15:57:43.607Z,4.25
2019-05-25T16:00:17.147Z,4.40
2019-05-25T16:02:48.639Z,5.30
2019-05-25T16:05:18.811Z,6.00
2019-05-25T16:07:50.816Z,6.40
2019-05-25T16:10:20.261Z,6.60
2019-05-25T16:12:49.704Z,6.87
2019-05-25T16:15:22.104Z,6.80
2019-05-25T16:17:51.776Z,7.83
2019-05-25T16:20:23.033Z,6.00
2019-05-25T16:22:52.376Z,4.75
2019-05-25T16:25:23.421Z,5.22
2019-05-25T16:27:52.524Z,4.90
2019-05-25T16:30:21.868Z,5.92
2019-05-25T16:35:22.265Z,6.95
2019-05-25T16:37:51.810Z,6.83
2019-05-25T16:40:21.545Z,7.10
2019-05-25T16:42:50.852Z,8.07
2019-05-25T16:45:20.310Z,8.48
2019-05-25T16:47:49.745Z,7.65
2019-05-25T16:50:19.331Z,7.37
2019-05-25T16:52:48.686Z,7.43
2019-05-25T16:55:18.694Z,9.18
2019-05-25T16:57:48.013Z,8.75
2019-05-25T17:00:20.536Z,8.68
2019-05-25T17:02:49.909Z,7.03
2019-05-25T17:05:19.326Z,6.17
2019-05-25T17:07:48.627Z,7.85
2019-05-25T17:10:18.136Z,6.20
2019-05-25T17:12:47.602Z,6.73
2019-05-25T17:15:18.105Z,6.25
2019-05-25T17:20:16.823Z,6.75
2019-05-25T17:22:46.156Z,7.15
2019-05-25T17:25:16.200Z,6.58
2019-05-25T17:27:45.616Z,6.03
2019-05-25T17:30:15.952Z,6.15
2019-05-25T17:32:45.357Z,5.87
2019-05-25T17:35:15.019Z,6.03
2019-05-25T17:37:46.436Z,5.40
2019-05-25T17:40:16.066Z,5.62
2019-05-25T17:42:45.469Z,6.10
2019-05-25T17:45:15.030Z,5.80
2019-05-25T17:47:44.527Z,6.47
2019-05-25T17:50:14.077Z,6.12
2019-05-25T17:52:43.500Z,6.13
2019-05-25T17:55:13.184Z,6.80
2019-05-25T17:57:42.547Z,6.42
2019-05-25T18:00:12.676Z,6.90
2019-05-25T18:02:42.064Z,7.65
2019-05-25T18:05:11.784Z,7.10
2019-05-25T18:07:41.147Z,12.10
2019-05-25T18:10:10.794Z,7.42
2019-05-25T18:12:40.147Z,7.53
2019-05-25T18:15:11.384Z,6.90
2019-05-25T18:17:40.826Z,6.92
2019-05-25T18:20:11.314Z,6.53
2019-05-25T18:25:09.405Z,7.90
2019-05-25T18:27:38.787Z,6.20
2019-05-25T18:30:10.494Z,6.83
2019-05-25T18:32:39.993Z,6.67
2019-05-25T18:35:09.511Z,6.72
2019-05-25T18:37:39.888Z,7.10
2019-05-25T18:40:09.894Z,7.30
2019-05-25T18:42:39.729Z,6.87
2019-05-25T18:45:09.811Z,7.37
2019-05-25T18:47:39.403Z,6.72
2019-05-25T18:50:10.385Z,7.40
2019-05-25T18:52:39.849Z,6.75
2019-05-25T18:55:09.916Z,6.47
2019-05-25T18:57:39.310Z,7.85
2019-05-25T19:00:10.099Z,7.28
2019-05-25T19:02:39.711Z,8.00
2019-05-25T19:05:09.647Z,7.77
2019-05-25T19:07:39.046Z,7.83
2019-05-25T19:10:10.215Z,8.30
2019-05-25T19:12:39.602Z,8.83
2019-05-25T19:15:10.149Z,8.83
2019-05-25T19:17:39.569Z,8.63
2019-05-25T19:20:09.932Z,9.68
2019-05-25T19:22:39.485Z,10.30
2019-05-25T19:25:09.488Z,11.33
2019-05-25T19:27:39.986Z,9.65
2019-05-25T19:30:10.512Z,10.70
2019-05-25T19:32:40.519Z,10.50
2019-05-25T19:35:10.721Z,11.00
2019-05-25T19:37:42.502Z,11.43
2019-05-25T19:40:12.196Z,11.95
2019-05-25T19:42:41.621Z,11.78
2019-05-25T19:45:14.229Z,11.55
2019-05-25T19:47:43.640Z,12.93
2019-05-25T19:50:14.012Z,12.20
2019-05-25T19:52:43.657Z,12.85
2019-05-25T19:55:13.730Z,13.43
2019-05-25T19:57:45.352Z,13.10
2019-05-25T20:00:16.296Z,13.62
2019-05-25T20:02:45.856Z,15.30
2019-05-25T20:05:17.614Z,15.53
2019-05-25T20:07:47.055Z,13.72
2019-05-25T20:10:17.060Z,14.47
2019-05-25T20:12:46.406Z,14.85
2019-05-25T20:15:16.174Z,15.30
2019-05-25T20:17:45.592Z,15.63
2019-05-25T20:20:15.159Z,16.40
2019-05-25T20:22:44.493Z,16.32
2019-05-25T20:25:14.909Z,17.30
2019-05-25T20:27:44.277Z,17.37
2019-05-25T20:30:13.724Z,17.25
2019-05-25T20:32:43.314Z,18.35
2019-05-25T20:35:12.982Z,18.15
2019-05-25T20:37:42.386Z,17.62
2019-05-25T20:40:11.777Z,16.40
2019-05-25T20:42:41.229Z,18.30
2019-05-25T20:45:10.653Z,18.67
2019-05-25T20:47:40.036Z,19.57
2019-05-25T20:50:10.932Z,20.32
2019-05-25T20:52:40.249Z,18.98
2019-05-25T20:55:09.926Z,19.55
2019-05-25T20:57:39.311Z,17.87
2019-05-25T21:00:10.334Z,18.90
2019-05-25T21:02:39.810Z,19.80
2019-05-25T21:05:09.554Z,19.25
2019-05-25T21:07:38.881Z,19.00
2019-05-25T21:10:08.989Z,17.73
2019-05-25T21:12:38.405Z,19.55
2019-05-25T21:15:08.368Z,17.77
2019-05-25T21:17:37.721Z,17.95
2019-05-25T21:20:08.030Z,18.85
2019-05-25T21:22:37.393Z,18.07
2019-05-25T21:25:08.839Z,19.62
2019-05-25T21:27:39.297Z,18.15
2019-05-25T21:30:09.670Z,17.17
2019-05-25T21:32:39.058Z,17.52
2019-05-25T21:35:09.358Z,17.82
2019-05-25T21:37:38.772Z,16.80
2019-05-25T21:40:09.468Z,18.60
2019-05-25T21:45:08.281Z,17.07
2019-05-25T21:47:37.608Z,19.25
2019-05-25T21:50:08.298Z,17.17
2019-05-25T21:55:06.794Z,17.82
2019-05-25T21:57:36.208Z,17.85
2019-05-25T22:00:12.196Z,18.02
2019-05-25T22:02:42.707Z,18.42
2019-05-25T22:05:12.424Z,18.57
2019-05-25T22:07:41.815Z,17.62
2019-05-25T22:10:11.609Z,16.57
2019-05-25T22:12:40.963Z,16.77
2019-05-25T22:15:12.056Z,16.95
2019-05-25T22:17:41.493Z,17.95
2019-05-25T22:20:11.932Z,17.70
2019-05-25T22:22:41.285Z,17.42
2019-05-25T22:25:11.341Z,20.65
2019-05-25T22:27:40.692Z,20.55
2019-05-25T22:30:10.460Z,23.40
2019-05-25T22:32:39.984Z,18.73
2019-05-25T22:35:09.644Z,18.65
2019-05-25T22:37:38.982Z,19.80
2019-05-25T22:40:09.342Z,17.98
2019-05-25T22:42:38.687Z,16.35
2019-05-25T22:45:08.901Z,16.48
2019-05-25T22:47:38.315Z,16.77
2019-05-25T22:50:08.477Z,17.35
2019-05-25T22:52:37.899Z,17.00
2019-05-25T22:55:07.604Z,17.77
2019-05-25T22:57:36.951Z,20.82
2019-05-25T23:00:08.609Z,15.63
2019-05-25T23:02:38.424Z,17.20
2019-05-25T23:05:08.373Z,17.60
2019-05-25T23:07:37.807Z,16.70
2019-05-25T23:10:09.645Z,17.57
2019-05-25T23:12:39.325Z,17.95
2019-05-25T23:15:10.174Z,17.85
2019-05-25T23:17:39.561Z,18.50
2019-05-25T23:20:09.385Z,18.00
2019-05-25T23:22:38.846Z,23.60
2019-05-25T23:25:08.519Z,17.30
2019-05-25T23:27:37.913Z,18.55
2019-05-25T23:30:07.807Z,19.23
2019-05-25T23:32:37.193Z,20.90
2019-05-25T23:35:06.765Z,18.67
2019-05-25T23:37:36.089Z,18.67
2019-05-25T23:40:08.042Z,18.02
2019-05-25T23:42:37.562Z,21.05
2019-05-25T23:45:19.401Z,19.77
2019-05-25T23:47:48.729Z,17.07
2019-05-25T23:50:37.421Z,16.87
2019-05-25T23:53:06.821Z,17.60
2019-05-25T23:55:36.175Z,16.93
2019-05-25T23:58:05.564Z,16.70
